Terminal Aerodrome Forecast
Issued by NWS

Current Version | Previous Version | Text Only | Print | Product List | Glossary On
Versions: 1 2 3 4 5 6 7 8 9 10 11 12 13 14 15 16 17
000
FTAK31 PANC 211740
TAFAHO
TAF
PAHO 211740Z 2118/2218 VRB04KT P6SM SCT025 BKN070
      TEMPO 2118/2122 -SHRA BKN025
     FM212200 36007KT P6SM -SHRA SCT015 OVC035
     FM221000 VRB04KT P6SM FEW020 BKN040=

USA.gov is the U.S. government's official web portal to all federal, state and local government web resources and services.